Time;durP1;ratioP1;P1;durP2;ratioP2;P2;SDS_P1;SDS_P2;PMS_P1;PMS_P2;Temp;Humidity;BMP_temperature;BMP_pressure;BME280_temperature;BME280_humidity;BME280_pressure;Samples;Min_cycle;Max_cycle;Signal;HPM_P1;HPM_P2
2020/12/02 00:00:26;;;;;;;43.60;27.00;;;;;;;;;;5064189;28;20175;-56
2020/12/02 00:02:54;;;;;;;39.30;26.07;;;;;;;;;;5069188;28;20594;-57
2020/12/02 00:05:20;;;;;;;40.60;27.10;;;;;;;;;;5067971;28;20661;-57
2020/12/02 00:07:46;;;;;;;34.63;23.83;;;;;;;;;;5060796;28;20597;-57
2020/12/02 00:10:12;;;;;;;38.67;25.67;;;;;;;;;;5067370;28;20190;-57
2020/12/02 00:12:37;;;;;;;35.92;25.98;;;;;;;;;;5068926;28;20594;-58
2020/12/02 00:15:04;;;;;;;36.70;25.97;;;;;;;;;;5068955;28;20219;-57
2020/12/02 00:17:29;;;;;;;39.27;26.70;;;;;;;;;;5066607;28;20348;-57
2020/12/02 00:19:54;;;;;;;32.67;24.20;;;;;;;;;;5069160;28;20685;-57
2020/12/02 00:22:21;;;;;;;39.58;27.33;;;;;;;;;;5064740;28;20194;-57
2020/12/02 00:24:46;;;;;;;39.23;25.87;;;;;;;;;;5067293;28;20172;-57
2020/12/02 00:27:16;;;;;;;37.83;25.00;;;;;;;;;;5066812;28;20608;-57
2020/12/02 00:29:42;;;;;;;36.93;27.00;;;;;;;;;;5067561;28;20206;-57
2020/12/02 00:32:08;;;;;;;36.60;25.43;;;;;;;;;;5069253;28;20602;-57
2020/12/02 00:34:33;;;;;;;37.33;25.03;;;;;;;;;;5065937;28;20949;-57
2020/12/02 00:36:58;;;;;;;34.80;24.60;;;;;;;;;;5066840;28;20195;-57
2020/12/02 00:39:23;;;;;;;37.10;25.70;;;;;;;;;;5068474;28;20179;-57
2020/12/02 00:41:48;;;;;;;41.55;26.20;;;;;;;;;;5071905;28;20179;-57
2020/12/02 00:44:14;;;;;;;39.20;26.77;;;;;;;;;;5072846;28;20178;-58
2020/12/02 00:46:39;;;;;;;39.17;25.93;;;;;;;;;;5064804;28;20175;-58
2020/12/02 00:49:05;;;;;;;35.83;26.10;;;;;;;;;;5070891;28;20943;-58
2020/12/02 00:51:30;;;;;;;37.90;25.60;;;;;;;;;;5071960;28;20175;-57
2020/12/02 00:53:55;;;;;;;37.70;25.98;;;;;;;;;;5072511;28;20194;-57
2020/12/02 00:56:21;;;;;;;36.17;26.08;;;;;;;;;;5070133;28;20771;-58
2020/12/02 00:58:47;;;;;;;39.07;25.23;;;;;;;;;;5071770;28;20193;-58
2020/12/02 01:01:15;;;;;;;39.30;26.47;;;;;;;;;;5070088;28;20582;-58
2020/12/02 01:03:40;;;;;;;34.80;25.43;;;;;;;;;;5071976;28;20680;-57
2020/12/02 01:06:08;;;;;;;37.87;25.27;;;;;;;;;;5071640;28;20700;-58
2020/12/02 01:08:40;;;;;;;38.90;26.13;;;;;;;;;;5071073;28;20769;-58
2020/12/02 01:11:08;;;;;;;43.13;26.40;;;;;;;;;;5071078;28;20618;-58
2020/12/02 01:13:34;;;;;;;38.53;26.20;;;;;;;;;;5069035;28;20611;-58
2020/12/02 01:16:01;;;;;;;37.43;25.33;;;;;;;;;;5071238;28;21005;-58
2020/12/02 01:18:26;;;;;;;36.80;26.10;;;;;;;;;;5064717;28;20649;-57
2020/12/02 01:20:54;;;;;;;42.07;27.40;;;;;;;;;;5071923;28;20597;-58
2020/12/02 01:23:20;;;;;;;38.93;25.83;;;;;;;;;;5070977;28;20213;-58
2020/12/02 01:25:46;;;;;;;42.60;27.10;;;;;;;;;;5071524;28;20601;-59
2020/12/02 01:28:14;;;;;;;34.57;24.43;;;;;;;;;;5068899;28;20608;-57
2020/12/02 01:30:41;;;;;;;38.73;26.27;;;;;;;;;;5068733;28;20227;-58
2020/12/02 01:33:06;;;;;;;40.00;25.90;;;;;;;;;;5071737;28;20602;-57
2020/12/02 01:35:32;;;;;;;38.47;25.70;;;;;;;;;;5067823;28;20596;-57
2020/12/02 01:38:01;;;;;;;40.37;26.47;;;;;;;;;;5069721;28;20313;-57
2020/12/02 01:40:27;;;;;;;35.77;25.40;;;;;;;;;;5070627;28;20175;-58
2020/12/02 01:42:55;;;;;;;42.50;27.80;;;;;;;;;;5070920;28;20739;-57
2020/12/02 01:45:31;;;;;;;35.03;25.57;;;;;;;;;;5071408;28;20592;-58
2020/12/02 01:48:02;;;;;;;41.50;27.77;;;;;;;;;;5054917;28;20605;-57
2020/12/02 01:50:39;;;;;;;36.90;26.97;;;;;;;;;;5070794;28;20605;-57
2020/12/02 01:53:16;;;;;;;37.03;26.40;;;;;;;;;;5071015;28;20608;-58
2020/12/02 01:56:02;;;;;;;40.53;26.30;;;;;;;;;;5070648;28;20676;-58
2020/12/02 01:58:27;;;;;;;36.23;25.60;;;;;;;;;;5070607;28;20713;-58
2020/12/02 02:00:57;;;;;;;39.40;27.85;;;;;;;;;;5065442;28;20613;-58
2020/12/02 02:03:22;;;;;;;44.80;27.53;;;;;;;;;;5061226;28;20240;-57
2020/12/02 02:06:04;;;;;;;40.57;27.87;;;;;;;;;;5070203;28;20625;-58
2020/12/02 02:08:30;;;;;;;43.37;27.40;;;;;;;;;;5068096;28;20212;-56
2020/12/02 02:10:56;;;;;;;44.77;27.63;;;;;;;;;;5069076;28;20748;-56
2020/12/02 02:13:38;;;;;;;43.43;27.80;;;;;;;;;;5069586;28;20627;-57
2020/12/02 02:16:21;;;;;;;37.10;26.33;;;;;;;;;;5069973;28;21279;-57
2020/12/02 02:18:46;;;;;;;38.10;26.57;;;;;;;;;;5062062;28;20643;-57
2020/12/02 02:21:19;;;;;;;40.00;26.10;;;;;;;;;;5070005;28;20601;-57
2020/12/02 02:23:45;;;;;;;40.97;27.67;;;;;;;;;;5064428;28;20192;-57
2020/12/02 02:26:13;;;;;;;38.73;26.80;;;;;;;;;;5069365;28;21174;-57
2020/12/02 02:28:41;;;;;;;40.40;27.87;;;;;;;;;;5066298;28;20171;-57
2020/12/02 02:31:10;;;;;;;39.27;25.00;;;;;;;;;;5070605;28;20639;-57
2020/12/02 02:33:35;;;;;;;40.20;27.27;;;;;;;;;;5070328;28;20593;-57
2020/12/02 02:36:00;;;;;;;37.77;26.00;;;;;;;;;;5069449;28;20592;-57
2020/12/02 02:38:26;;;;;;;41.30;27.20;;;;;;;;;;5066399;28;20586;-57
2020/12/02 02:40:51;;;;;;;41.78;27.27;;;;;;;;;;5070303;28;20174;-57
2020/12/02 02:43:16;;;;;;;42.87;28.20;;;;;;;;;;5069558;28;20172;-57
2020/12/02 02:45:41;;;;;;;40.83;27.47;;;;;;;;;;5070077;28;20178;-57
2020/12/02 02:48:06;;;;;;;42.10;27.23;;;;;;;;;;5062715;28;20179;-57
2020/12/02 02:50:33;;;;;;;35.63;26.48;;;;;;;;;;5068782;28;20264;-57
2020/12/02 02:52:58;;;;;;;37.90;28.13;;;;;;;;;;5070033;28;20204;-57
2020/12/02 02:55:24;;;;;;;40.33;27.90;;;;;;;;;;5069629;28;20597;-57
2020/12/02 02:57:49;;;;;;;39.57;27.27;;;;;;;;;;5065983;28;20688;-57
2020/12/02 03:00:23;;;;;;;40.57;27.43;;;;;;;;;;5068937;28;20175;-57
2020/12/02 03:02:48;;;;;;;42.53;27.50;;;;;;;;;;5066143;28;20175;-57
2020/12/02 03:05:14;;;;;;;36.20;26.25;;;;;;;;;;5069499;28;20712;-57
2020/12/02 03:07:39;;;;;;;41.43;28.00;;;;;;;;;;5067645;28;20198;-57
2020/12/02 03:10:04;;;;;;;37.90;27.23;;;;;;;;;;5070122;28;20589;-57
2020/12/02 03:12:29;;;;;;;42.30;28.00;;;;;;;;;;5068772;28;20641;-57
2020/12/02 03:14:55;;;;;;;41.78;28.10;;;;;;;;;;5066223;28;20174;-57
2020/12/02 03:17:21;;;;;;;39.60;26.80;;;;;;;;;;5067097;28;20207;-57
2020/12/02 03:19:52;;;;;;;45.00;28.30;;;;;;;;;;5069901;28;20174;-57
2020/12/02 03:22:20;;;;;;;38.07;25.70;;;;;;;;;;5069438;28;20590;-55
2020/12/02 03:24:45;;;;;;;36.30;26.77;;;;;;;;;;5069653;28;20625;-56
2020/12/02 03:27:10;;;;;;;37.40;25.77;;;;;;;;;;5062340;28;20650;-57
2020/12/02 03:29:35;;;;;;;38.73;26.60;;;;;;;;;;5069427;28;20240;-57
2020/12/02 03:32:00;;;;;;;38.13;27.02;;;;;;;;;;5069720;28;20194;-56
2020/12/02 03:34:26;;;;;;;42.57;26.60;;;;;;;;;;5070056;28;20239;-57
2020/12/02 03:36:51;;;;;;;38.57;27.00;;;;;;;;;;5069027;28;20328;-57
2020/12/02 03:39:17;;;;;;;39.80;26.88;;;;;;;;;;5066331;28;20646;-56
2020/12/02 03:41:42;;;;;;;40.63;28.60;;;;;;;;;;5068809;28;20640;-56
2020/12/02 03:44:08;;;;;;;43.00;29.17;;;;;;;;;;5069205;28;20639;-57
2020/12/02 03:46:34;;;;;;;41.20;29.07;;;;;;;;;;5068176;28;20179;-57
2020/12/02 03:48:59;;;;;;;43.03;29.33;;;;;;;;;;5067769;28;20596;-57
2020/12/02 03:51:25;;;;;;;46.63;30.90;;;;;;;;;;5069859;28;20181;-57
2020/12/02 03:53:50;;;;;;;41.73;29.03;;;;;;;;;;5069148;28;20641;-57
2020/12/02 03:56:15;;;;;;;41.60;27.20;;;;;;;;;;5069329;28;20175;-58
2020/12/02 03:58:41;;;;;;;39.10;27.33;;;;;;;;;;5064731;28;20625;-58
2020/12/02 04:01:06;;;;;;;40.03;27.40;;;;;;;;;;5069422;28;20175;-58
2020/12/02 04:03:32;;;;;;;38.60;26.20;;;;;;;;;;5069110;28;20811;-58
2020/12/02 04:05:57;;;;;;;37.47;26.07;;;;;;;;;;5069289;28;20993;-57
2020/12/02 04:08:22;;;;;;;40.90;27.77;;;;;;;;;;5067061;28;20259;-58
2020/12/02 04:10:47;;;;;;;40.67;27.77;;;;;;;;;;5066594;28;20707;-58
2020/12/02 04:13:12;;;;;;;36.95;28.05;;;;;;;;;;5068736;28;20174;-57
2020/12/02 04:15:37;;;;;;;40.05;27.85;;;;;;;;;;5072029;28;20234;-59
2020/12/02 04:18:02;;;;;;;41.08;28.52;;;;;;;;;;5071040;28;20563;-59
2020/12/02 04:20:28;;;;;;;37.75;26.98;;;;;;;;;;5072549;28;20178;-59
2020/12/02 04:22:53;;;;;;;42.33;28.35;;;;;;;;;;5073967;28;20175;-59
2020/12/02 04:25:20;;;;;;;39.53;27.53;;;;;;;;;;5072941;28;20200;-59
2020/12/02 04:27:45;;;;;;;37.90;28.00;;;;;;;;;;5070074;28;20163;-59
2020/12/02 04:30:11;;;;;;;40.65;28.55;;;;;;;;;;5063841;28;20662;-59
2020/12/02 04:32:36;;;;;;;39.53;26.23;;;;;;;;;;5069479;28;20540;-59
2020/12/02 04:35:02;;;;;;;39.77;28.20;;;;;;;;;;5062321;28;20683;-59
2020/12/02 04:37:31;;;;;;;40.87;28.93;;;;;;;;;;5064452;28;20210;-59
2020/12/02 04:39:57;;;;;;;40.30;28.00;;;;;;;;;;5069346;28;20208;-60
2020/12/02 04:42:25;;;;;;;38.77;27.63;;;;;;;;;;5068389;28;21004;-59
2020/12/02 04:44:51;;;;;;;42.30;29.23;;;;;;;;;;5068560;28;20589;-59
2020/12/02 04:47:16;;;;;;;39.33;26.90;;;;;;;;;;5067177;28;20708;-59
2020/12/02 04:49:41;;;;;;;37.57;27.93;;;;;;;;;;5067252;28;20233;-59
2020/12/02 04:52:13;;;;;;;40.47;28.63;;;;;;;;;;5068766;28;20543;-59
2020/12/02 04:54:38;;;;;;;38.47;28.33;;;;;;;;;;5068792;28;20225;-59
2020/12/02 04:57:03;;;;;;;40.10;28.40;;;;;;;;;;5066550;28;21039;-59
2020/12/02 04:59:36;;;;;;;36.67;27.13;;;;;;;;;;5066745;28;20190;-59
2020/12/02 05:02:01;;;;;;;41.30;29.83;;;;;;;;;;5067595;28;20173;-58
2020/12/02 05:04:27;;;;;;;40.73;27.37;;;;;;;;;;5072293;28;20589;-59
2020/12/02 05:07:05;;;;;;;41.67;27.67;;;;;;;;;;5072034;28;20233;-59
2020/12/02 05:09:34;;;;;;;43.33;28.47;;;;;;;;;;5071431;28;20604;-58
2020/12/02 05:12:04;;;;;;;43.93;28.80;;;;;;;;;;5071388;28;20936;-59
2020/12/02 05:14:40;;;;;;;38.17;27.20;;;;;;;;;;5071623;28;20597;-59
2020/12/02 05:17:17;;;;;;;41.33;28.73;;;;;;;;;;5071226;28;20653;-59
2020/12/02 05:19:43;;;;;;;38.80;28.00;;;;;;;;;;5058379;28;20604;-59
2020/12/02 05:22:11;;;;;;;38.20;27.47;;;;;;;;;;5071679;28;20601;-59
2020/12/02 05:24:44;;;;;;;38.00;26.93;;;;;;;;;;5070327;28;20630;-59
2020/12/02 05:27:11;;;;;;;45.10;29.10;;;;;;;;;;5066887;28;21103;-59
2020/12/02 05:29:42;;;;;;;42.73;30.10;;;;;;;;;;5067800;28;20601;-59
2020/12/02 05:32:12;;;;;;;48.60;33.03;;;;;;;;;;5068549;28;21262;-59
2020/12/02 05:34:37;;;;;;;44.93;31.67;;;;;;;;;;5065360;28;20676;-59
2020/12/02 05:37:06;;;;;;;44.73;32.23;;;;;;;;;;5069888;28;20748;-59
2020/12/02 05:39:41;;;;;;;46.30;32.20;;;;;;;;;;5066571;28;20172;-59
2020/12/02 05:42:19;;;;;;;45.63;31.00;;;;;;;;;;5067894;28;20599;-59
2020/12/02 05:44:44;;;;;;;41.70;30.93;;;;;;;;;;5062739;28;20608;-58
2020/12/02 05:47:12;;;;;;;37.63;28.50;;;;;;;;;;5068388;28;20720;-59
2020/12/02 05:49:40;;;;;;;41.67;29.10;;;;;;;;;;5064562;28;20176;-58
2020/12/02 05:52:11;;;;;;;39.13;29.77;;;;;;;;;;5073289;28;20592;-58
2020/12/02 05:54:37;;;;;;;41.13;29.97;;;;;;;;;;5066464;28;20974;-58
2020/12/02 05:57:04;;;;;;;39.83;28.17;;;;;;;;;;5067166;28;20669;-58
2020/12/02 05:59:29;;;;;;;36.30;27.73;;;;;;;;;;5065205;28;20190;-58
2020/12/02 06:01:56;;;;;;;38.30;26.20;;;;;;;;;;5067223;28;20594;-58
2020/12/02 06:04:21;;;;;;;37.57;27.20;;;;;;;;;;5066312;28;20634;-58
2020/12/02 06:06:56;;;;;;;37.63;27.93;;;;;;;;;;5067553;28;20597;-58
2020/12/02 06:09:28;;;;;;;38.57;27.60;;;;;;;;;;5063887;28;20224;-58
2020/12/02 06:12:01;;;;;;;37.70;26.30;;;;;;;;;;5067560;28;20688;-58
2020/12/02 06:14:30;;;;;;;36.23;26.27;;;;;;;;;;5061390;28;20617;-57
2020/12/02 06:16:56;;;;;;;40.60;28.13;;;;;;;;;;5064675;28;20664;-57
2020/12/02 06:19:23;;;;;;;36.03;25.90;;;;;;;;;;5059623;28;20582;-58
2020/12/02 06:21:59;;;;;;;36.43;26.63;;;;;;;;;;5069857;28;20220;-58
2020/12/02 06:24:33;;;;;;;40.80;29.10;;;;;;;;;;5067777;28;20645;-58
2020/12/02 06:26:58;;;;;;;39.80;28.07;;;;;;;;;;5066691;28;20601;-58
2020/12/02 06:29:29;;;;;;;37.50;27.07;;;;;;;;;;5068028;28;20630;-59
2020/12/02 06:31:56;;;;;;;36.60;25.70;;;;;;;;;;5070100;28;20179;-58
2020/12/02 06:34:23;;;;;;;36.37;26.27;;;;;;;;;;5068687;28;20598;-58
2020/12/02 06:37:09;;;;;;;38.07;26.97;;;;;;;;;;5069922;28;20655;-59
2020/12/02 06:39:36;;;;;;;39.67;27.20;;;;;;;;;;5062089;28;21177;-58
2020/12/02 06:42:01;;;;;;;38.30;27.00;;;;;;;;;;5069796;28;20585;-58
2020/12/02 06:44:34;;;;;;;39.30;26.70;;;;;;;;;;5069059;28;20625;-58
2020/12/02 06:47:03;;;;;;;38.00;27.57;;;;;;;;;;5070012;28;21258;-58
2020/12/02 06:49:30;;;;;;;37.10;25.50;;;;;;;;;;5067755;28;21048;-58
2020/12/02 06:51:57;;;;;;;38.50;25.30;;;;;;;;;;5070087;28;20692;-58
2020/12/02 06:54:22;;;;;;;36.47;25.20;;;;;;;;;;5069497;28;20829;-59
2020/12/02 06:56:52;;;;;;;36.47;24.77;;;;;;;;;;5065785;28;21106;-59
2020/12/02 06:59:17;;;;;;;37.47;25.53;;;;;;;;;;5067235;28;20179;-58
2020/12/02 07:01:43;;;;;;;34.30;25.20;;;;;;;;;;5065537;28;20613;-58
2020/12/02 07:04:14;;;;;;;38.00;24.73;;;;;;;;;;5066784;28;20703;-58
2020/12/02 07:06:40;;;;;;;32.17;23.23;;;;;;;;;;5064397;28;20199;-58
2020/12/02 07:09:10;;;;;;;31.70;22.15;;;;;;;;;;5064985;28;20671;-58
2020/12/02 07:11:36;;;;;;;31.60;22.50;;;;;;;;;;5066175;28;20183;-58
2020/12/02 07:14:18;;;;;;;29.83;22.37;;;;;;;;;;5066198;28;20711;-58
2020/12/02 07:16:43;;;;;;;32.10;23.20;;;;;;;;;;5065257;28;20653;-58
2020/12/02 07:19:11;;;;;;;32.53;23.63;;;;;;;;;;5063839;28;20923;-58
2020/12/02 07:21:42;;;;;;;30.70;21.80;;;;;;;;;;5064855;28;20641;-59
2020/12/02 07:24:13;;;;;;;29.83;21.53;;;;;;;;;;5059033;28;20601;-59
2020/12/02 07:26:38;;;;;;;32.47;21.80;;;;;;;;;;5061959;28;20698;-58
2020/12/02 07:29:10;;;;;;;29.33;19.95;;;;;;;;;;5064242;28;20668;-59
2020/12/02 07:31:36;;;;;;;29.30;22.00;;;;;;;;;;5066251;28;20195;-59
2020/12/02 07:34:03;;;;;;;32.40;21.67;;;;;;;;;;5065665;28;20675;-59
2020/12/02 07:36:30;;;;;;;30.70;21.70;;;;;;;;;;5065243;28;20919;-59
2020/12/02 07:39:00;;;;;;;29.67;21.80;;;;;;;;;;5063569;28;21401;-59
2020/12/02 07:41:25;;;;;;;29.47;21.60;;;;;;;;;;5056875;28;20624;-59
2020/12/02 07:43:51;;;;;;;37.40;23.10;;;;;;;;;;5065058;28;21139;-59
2020/12/02 07:46:17;;;;;;;29.40;21.30;;;;;;;;;;5062545;28;20180;-59
2020/12/02 07:48:43;;;;;;;33.97;22.83;;;;;;;;;;5065253;28;20646;-59
2020/12/02 07:51:21;;;;;;;27.20;19.43;;;;;;;;;;5071377;28;20597;-59
2020/12/02 07:53:55;;;;;;;32.87;21.00;;;;;;;;;;5069708;28;20978;-59
2020/12/02 07:56:27;;;;;;;32.50;21.07;;;;;;;;;;5068572;28;20684;-59
2020/12/02 07:58:54;;;;;;;29.10;20.03;;;;;;;;;;5070349;28;20610;-58
2020/12/02 08:01:34;;;;;;;26.17;19.27;;;;;;;;;;5066727;28;20653;-58
2020/12/02 08:04:25;;;;;;;31.10;20.67;;;;;;;;;;5072971;28;20608;-58
2020/12/02 08:07:00;;;;;;;31.90;21.30;;;;;;;;;;5066291;28;20656;-58
2020/12/02 08:09:25;;;;;;;34.13;20.17;;;;;;;;;;5068651;28;20602;-58
2020/12/02 08:11:56;;;;;;;30.13;20.60;;;;;;;;;;5071709;28;20620;-58
2020/12/02 08:14:25;;;;;;;28.53;20.53;;;;;;;;;;5071617;28;20661;-59
2020/12/02 08:16:52;;;;;;;25.37;19.53;;;;;;;;;;5070260;28;20650;-57
2020/12/02 08:19:47;;;;;;;27.80;20.70;;;;;;;;;;5067937;28;20597;-58
2020/12/02 08:22:19;;;;;;;24.60;18.67;;;;;;;;;;5052704;28;20609;-58
2020/12/02 08:24:44;;;;;;;27.47;18.87;;;;;;;;;;5072629;28;20718;-59
2020/12/02 08:27:14;;;;;;;28.87;21.87;;;;;;;;;;5072488;28;21335;-60
2020/12/02 08:29:46;;;;;;;27.70;21.00;;;;;;;;;;5070006;28;20183;-61
2020/12/02 08:32:19;;;;;;;30.27;20.50;;;;;;;;;;5070986;28;20675;-60
2020/12/02 08:34:44;;;;;;;28.20;20.03;;;;;;;;;;5070433;28;20594;-60
2020/12/02 08:37:12;;;;;;;29.92;19.55;;;;;;;;;;5070778;28;20771;-60
2020/12/02 08:39:38;;;;;;;27.07;19.60;;;;;;;;;;5066374;28;20927;-60
2020/12/02 08:42:03;;;;;;;29.33;20.33;;;;;;;;;;5072576;28;20654;-60
2020/12/02 08:44:29;;;;;;;26.48;19.02;;;;;;;;;;5070015;28;20598;-60
2020/12/02 08:46:56;;;;;;;28.63;20.30;;;;;;;;;;5072449;28;20176;-59
2020/12/02 08:49:31;;;;;;;28.70;21.07;;;;;;;;;;5071565;28;20643;-60
2020/12/02 08:51:57;;;;;;;28.50;19.00;;;;;;;;;;5065172;28;20612;-60
2020/12/02 08:54:24;;;;;;;28.63;19.83;;;;;;;;;;5070226;28;20658;-60
2020/12/02 08:56:49;;;;;;;29.87;19.30;;;;;;;;;;5071790;28;20286;-61
2020/12/02 08:59:15;;;;;;;26.10;18.97;;;;;;;;;;5070475;28;20705;-60
2020/12/02 09:01:40;;;;;;;28.90;19.67;;;;;;;;;;5068892;28;20185;-59
2020/12/02 09:04:05;;;;;;;28.20;18.53;;;;;;;;;;5070121;28;20824;-60
2020/12/02 09:06:30;;;;;;;31.13;20.00;;;;;;;;;;5071917;28;20182;-60
2020/12/02 09:08:56;;;;;;;27.90;18.80;;;;;;;;;;5072025;28;20168;-60
2020/12/02 09:11:23;;;;;;;27.00;20.13;;;;;;;;;;5070845;28;20178;-60
2020/12/02 09:13:49;;;;;;;29.23;20.27;;;;;;;;;;5071552;28;20182;-60
2020/12/02 09:16:25;;;;;;;27.50;20.33;;;;;;;;;;5070159;28;20656;-60
2020/12/02 09:18:52;;;;;;;26.63;19.63;;;;;;;;;;5069602;28;20203;-60
2020/12/02 09:21:17;;;;;;;30.07;18.77;;;;;;;;;;5067442;28;20613;-60
2020/12/02 09:23:42;;;;;;;26.37;19.87;;;;;;;;;;5071312;28;20606;-60
2020/12/02 09:26:07;;;;;;;24.38;19.83;;;;;;;;;;5068156;28;20175;-60
2020/12/02 09:28:32;;;;;;;28.93;19.50;;;;;;;;;;5068005;28;20524;-60
2020/12/02 09:30:57;;;;;;;30.50;21.03;;;;;;;;;;5070324;28;20276;-60
2020/12/02 09:33:22;;;;;;;29.30;20.10;;;;;;;;;;5071703;28;20564;-60
2020/12/02 09:35:48;;;;;;;28.40;20.23;;;;;;;;;;5067561;28;20263;-60
2020/12/02 09:38:13;;;;;;;29.40;20.55;;;;;;;;;;5071566;28;20200;-60
2020/12/02 09:40:39;;;;;;;31.10;20.40;;;;;;;;;;5071248;28;20171;-60
2020/12/02 09:43:21;;;;;;;28.97;20.30;;;;;;;;;;5065900;28;20962;-60
2020/12/02 09:46:03;;;;;;;30.60;21.27;;;;;;;;;;5069069;28;20224;-60
2020/12/02 09:48:28;;;;;;;26.40;19.43;;;;;;;;;;5070893;28;20602;-60
2020/12/02 09:50:53;;;;;;;29.80;20.37;;;;;;;;;;5070475;28;20598;-60
2020/12/02 09:53:20;;;;;;;28.23;20.70;;;;;;;;;;5069421;28;20230;-60
2020/12/02 09:55:46;;;;;;;29.50;21.27;;;;;;;;;;5068561;28;20207;-60
2020/12/02 09:58:12;;;;;;;28.67;20.70;;;;;;;;;;5070419;28;20727;-60
2020/12/02 10:00:37;;;;;;;27.87;20.60;;;;;;;;;;5070568;28;20603;-60
2020/12/02 10:03:21;;;;;;;27.33;19.60;;;;;;;;;;5062756;28;20177;-60
2020/12/02 10:06:05;;;;;;;25.73;19.57;;;;;;;;;;5070309;28;20699;-60
2020/12/02 10:08:49;;;;;;;29.10;20.23;;;;;;;;;;5064579;28;21165;-60
2020/12/02 10:11:30;;;;;;;28.57;19.90;;;;;;;;;;5069895;28;20961;-60
2020/12/02 10:14:07;;;;;;;27.10;20.23;;;;;;;;;;5070097;28;20639;-60
2020/12/02 10:16:39;;;;;;;29.13;21.33;;;;;;;;;;5065802;28;20677;-60
2020/12/02 10:19:23;;;;;;;30.50;20.80;;;;;;;;;;5069982;28;20603;-60
2020/12/02 10:22:12;;;;;;;28.77;20.23;;;;;;;;;;5069983;28;20652;-60
2020/12/02 10:25:01;;;;;;;25.27;19.60;;;;;;;;;;5062804;28;21144;-60
2020/12/02 10:27:29;;;;;;;28.00;20.30;;;;;;;;;;5062941;28;20713;-60
2020/12/02 10:29:57;;;;;;;29.40;20.77;;;;;;;;;;5069963;28;20609;-60
2020/12/02 10:32:40;;;;;;;28.40;20.13;;;;;;;;;;5069858;28;20992;-60
2020/12/02 10:35:06;;;;;;;28.13;19.93;;;;;;;;;;5067860;28;21047;-60
2020/12/02 10:37:33;;;;;;;30.30;19.93;;;;;;;;;;5066965;28;20630;-60
2020/12/02 10:39:58;;;;;;;31.73;22.63;;;;;;;;;;5069798;28;20173;-60
2020/12/02 10:42:38;;;;;;;34.23;22.13;;;;;;;;;;5069609;28;20582;-60
2020/12/02 10:45:10;;;;;;;32.83;21.13;;;;;;;;;;5067596;28;20255;-60
2020/12/02 10:47:49;;;;;;;28.53;19.67;;;;;;;;;;5069693;28;20595;-60
2020/12/02 10:50:19;;;;;;;30.77;20.93;;;;;;;;;;5066472;28;20621;-59
2020/12/02 10:52:46;;;;;;;31.00;20.70;;;;;;;;;;5069667;28;20602;-59
2020/12/02 10:55:13;;;;;;;31.70;21.87;;;;;;;;;;5067165;28;20609;-60
2020/12/02 10:57:39;;;;;;;27.37;20.77;;;;;;;;;;5069309;28;20670;-60
2020/12/02 11:00:06;;;;;;;31.07;22.03;;;;;;;;;;5069553;28;20588;-60
2020/12/02 11:02:31;;;;;;;30.20;21.53;;;;;;;;;;5067762;28;20677;-60
2020/12/02 11:04:57;;;;;;;33.40;20.50;;;;;;;;;;5065114;28;20591;-60
2020/12/02 11:07:43;;;;;;;30.57;21.73;;;;;;;;;;5067580;28;20180;-60
2020/12/02 11:10:10;;;;;;;31.57;20.80;;;;;;;;;;5053604;28;20607;-61
2020/12/02 11:12:54;;;;;;;34.13;22.37;;;;;;;;;;5069192;28;20593;-60
2020/12/02 11:15:22;;;;;;;28.47;19.83;;;;;;;;;;5064901;28;20671;-60
2020/12/02 11:17:56;;;;;;;29.20;21.73;;;;;;;;;;5067254;28;21291;-60
2020/12/02 11:20:27;;;;;;;29.63;21.77;;;;;;;;;;5069112;28;20584;-60
2020/12/02 11:23:11;;;;;;;31.00;21.17;;;;;;;;;;5069191;28;20665;-60
2020/12/02 11:25:52;;;;;;;31.70;21.10;;;;;;;;;;5066741;28;21133;-60
2020/12/02 11:28:17;;;;;;;28.33;20.47;;;;;;;;;;5062747;28;20706;-60
2020/12/02 11:30:44;;;;;;;31.73;22.58;;;;;;;;;;5069145;28;20689;-60
2020/12/02 11:33:24;;;;;;;30.17;21.97;;;;;;;;;;5069198;28;20639;-60
2020/12/02 11:35:58;;;;;;;27.60;20.90;;;;;;;;;;5065205;28;20604;-60
2020/12/02 11:38:27;;;;;;;30.50;22.17;;;;;;;;;;5069004;28;20666;-60
2020/12/02 11:41:07;;;;;;;30.93;21.53;;;;;;;;;;5064199;28;20607;-60
2020/12/02 11:43:36;;;;;;;29.17;21.90;;;;;;;;;;5068711;28;20596;-60
2020/12/02 11:46:02;;;;;;;29.73;22.50;;;;;;;;;;5066961;28;21215;-60
2020/12/02 11:48:32;;;;;;;34.50;23.87;;;;;;;;;;5068743;28;20685;-60
2020/12/02 11:51:14;;;;;;;30.83;22.53;;;;;;;;;;5068981;28;20176;-60
2020/12/02 11:53:50;;;;;;;28.87;22.20;;;;;;;;;;5064588;28;20630;-60
2020/12/02 11:56:35;;;;;;;31.67;24.10;;;;;;;;;;5067169;28;21227;-59
2020/12/02 11:59:00;;;;;;;32.80;23.50;;;;;;;;;;5061697;28;20963;-60
2020/12/02 12:01:46;;;;;;;28.90;21.63;;;;;;;;;;5068914;28;20948;-59
2020/12/02 12:04:14;;;;;;;30.83;23.10;;;;;;;;;;5048469;28;20175;-60
2020/12/02 12:06:40;;;;;;;28.60;21.80;;;;;;;;;;5066647;28;21171;-60
2020/12/02 12:09:17;;;;;;;35.03;22.10;;;;;;;;;;5060672;28;20665;-60
2020/12/02 12:11:42;;;;;;;32.63;21.67;;;;;;;;;;5068572;28;20163;-57
2020/12/02 12:14:07;;;;;;;28.33;20.20;;;;;;;;;;5068179;28;20973;-58
2020/12/02 12:16:51;;;;;;;29.30;21.25;;;;;;;;;;5060225;28;20233;-58
2020/12/02 12:19:27;;;;;;;32.17;22.67;;;;;;;;;;5060875;28;20224;-59
2020/12/02 12:21:55;;;;;;;36.47;23.70;;;;;;;;;;5068852;28;20585;-59
2020/12/02 12:24:20;;;;;;;31.37;23.30;;;;;;;;;;5068483;28;20584;-58
2020/12/02 12:26:50;;;;;;;32.10;23.00;;;;;;;;;;5065043;28;20600;-59
2020/12/02 12:29:15;;;;;;;35.80;24.30;;;;;;;;;;5066311;28;20176;-59
2020/12/02 12:31:47;;;;;;;32.50;22.40;;;;;;;;;;5068334;28;20609;-58
2020/12/02 12:34:21;;;;;;;32.50;22.00;;;;;;;;;;5068274;28;20250;-60
2020/12/02 12:36:47;;;;;;;32.53;22.53;;;;;;;;;;5069842;28;20633;-60
2020/12/02 12:39:17;;;;;;;29.73;22.77;;;;;;;;;;5071817;28;20609;-59
2020/12/02 12:41:44;;;;;;;33.77;24.03;;;;;;;;;;5065866;28;20589;-60
2020/12/02 12:44:17;;;;;;;34.90;23.43;;;;;;;;;;5072027;28;20605;-60
2020/12/02 12:47:01;;;;;;;35.17;23.97;;;;;;;;;;5069987;28;20659;-60
2020/12/02 12:49:27;;;;;;;35.80;24.60;;;;;;;;;;5071846;28;20604;-60
2020/12/02 12:51:54;;;;;;;34.60;26.23;;;;;;;;;;5071923;28;21071;-59
2020/12/02 12:54:20;;;;;;;33.97;24.23;;;;;;;;;;5071402;28;20612;-60
2020/12/02 12:56:45;;;;;;;35.20;24.40;;;;;;;;;;5069616;28;20647;-60
2020/12/02 12:59:14;;;;;;;35.70;23.90;;;;;;;;;;5071736;28;20176;-59
2020/12/02 13:01:40;;;;;;;33.10;24.33;;;;;;;;;;5071414;28;20170;-59
2020/12/02 13:04:07;;;;;;;34.03;24.00;;;;;;;;;;5071777;28;20594;-59
2020/12/02 13:06:32;;;;;;;33.43;23.53;;;;;;;;;;5067848;28;20637;-60
2020/12/02 13:09:11;;;;;;;35.22;23.23;;;;;;;;;;5069532;28;21187;-60
2020/12/02 13:11:36;;;;;;;35.67;24.03;;;;;;;;;;5070775;28;20171;-60
2020/12/02 13:14:05;;;;;;;35.90;24.13;;;;;;;;;;5071361;28;21234;-59
2020/12/02 13:16:36;;;;;;;33.77;23.53;;;;;;;;;;5067320;28;20302;-60
2020/12/02 13:19:18;;;;;;;33.70;23.20;;;;;;;;;;5064570;28;20596;-59
2020/12/02 13:21:56;;;;;;;34.43;23.93;;;;;;;;;;5071185;28;20597;-58
2020/12/02 13:24:40;;;;;;;33.07;22.17;;;;;;;;;;5063279;28;21161;-59
2020/12/02 13:27:25;;;;;;;35.13;24.30;;;;;;;;;;5069315;28;20650;-59
2020/12/02 13:29:53;;;;;;;32.90;23.73;;;;;;;;;;5065998;28;20643;-59
2020/12/02 13:32:29;;;;;;;34.20;24.73;;;;;;;;;;5068753;28;21151;-59
2020/12/02 13:34:54;;;;;;;32.80;22.63;;;;;;;;;;5071107;28;20609;-59
2020/12/02 13:37:21;;;;;;;36.30;24.00;;;;;;;;;;5067068;28;20682;-59
2020/12/02 13:39:46;;;;;;;34.70;24.00;;;;;;;;;;5071032;28;20224;-59
2020/12/02 13:42:11;;;;;;;28.20;21.57;;;;;;;;;;5068266;28;21080;-59
2020/12/02 13:44:52;;;;;;;36.73;24.40;;;;;;;;;;5070594;28;20179;-59
2020/12/02 13:47:17;;;;;;;37.83;23.97;;;;;;;;;;5068295;28;20206;-59
2020/12/02 13:49:42;;;;;;;33.13;22.97;;;;;;;;;;5070890;28;20625;-59
2020/12/02 13:52:13;;;;;;;32.47;23.60;;;;;;;;;;5069501;28;20187;-59
2020/12/02 13:54:51;;;;;;;38.33;25.00;;;;;;;;;;5068566;28;20268;-59
2020/12/02 13:57:31;;;;;;;37.20;24.70;;;;;;;;;;5068730;28;20746;-59
2020/12/02 14:00:15;;;;;;;36.90;25.03;;;;;;;;;;5063803;28;20590;-59
2020/12/02 14:02:59;;;;;;;35.77;24.63;;;;;;;;;;5070107;28;20820;-59
2020/12/02 14:05:42;;;;;;;37.57;24.40;;;;;;;;;;5064280;28;20647;-59
2020/12/02 14:08:07;;;;;;;37.57;25.37;;;;;;;;;;5063369;28;20693;-59
2020/12/02 14:10:33;;;;;;;38.57;24.63;;;;;;;;;;5070208;28;20775;-59
2020/12/02 14:12:59;;;;;;;33.90;24.63;;;;;;;;;;5070224;28;20183;-59
2020/12/02 14:15:26;;;;;;;34.67;25.30;;;;;;;;;;5070172;28;20655;-58
2020/12/02 14:17:51;;;;;;;37.47;24.43;;;;;;;;;;5066427;28;20306;-59
2020/12/02 14:20:17;;;;;;;35.60;22.83;;;;;;;;;;5070008;28;20609;-59
2020/12/02 14:22:42;;;;;;;39.33;24.63;;;;;;;;;;5069860;28;20240;-59
2020/12/02 14:25:09;;;;;;;39.53;26.17;;;;;;;;;;5070234;28;20711;-59
2020/12/02 14:27:35;;;;;;;34.87;24.23;;;;;;;;;;5068014;28;20199;-59